メインページ
METAR-TAF:

METAR-TAF

空港 :

カムラン国際空港

カムラン, ベトナム

緯度: 11-59-53N, 経度: 109-13-10E, 海抜: 12m

現時点の気象観測

当レポートは50分前の11:00(UTC)に作成
無風
気温 29°C
湿度 74%
気圧 1005 hPa
視程10km以上
高度1500ftの雲はほとんどない
高度6000ftの雲は散在している

METAR: VVCR 201100Z 00000KT 9999 FEW015 SCT060 29/24 Q1005 NOSIG

時間: 18:50 (11:50 UTC)

予報

当レポートは50分前の11:00(UTC)に作成
予報は20日の 12時(UTC)から 21日の 12時(UTC)まで有効
西の風 5kt
視程10km以上
高度1500ftの雲は散在している
高度6000ftの雲は散在している
21日の 04時(UTC)から 21日の 05時(UTC)まで徐々に
の風 10kt
21日の 07時(UTC)から 21日の 11時(UTC)まで一時的に
高度1300ftの雲は散在している
高度1500ftの雲はほとんどない, 積乱雲.
高度6000ftの雲は散在している
激しい雷雨,

TAF: VVCR 201100Z 2012/2112 28005KT 9999 SCT015 SCT060 BECMG 2104/2105 08010KT TEMPO 2107/2111 TS SCT013 FEW015CB SCT060

4,000以上の空港の気象観測と天気予報(METAR報とTAF報)

利用可能な観測所は地図上に黄色い丸と赤い丸で示す。

丸の上にカーソルを重ねると観測所名を参照できる。

次にクリックすると気象観測と天気予報を参照できる。

マップの切り替え:黒色「×」印の緑ボタンをクリックして拡大、「-」印の緑ボタンをクリックして縮小、緑色の三角印をクリックして隣りの地図に切り替え


METAR-TAF: